Terminal Aerodrome Forecast
Issued by NWS King Salmon, AK

Home | Current Version | Previous Version | Text Only | Print | Product List | Glossary On
Versions: 1 2 3 4 5 6 7 8 9 10 11 12 13 14 15
000
FTAK31 PANC 212327
TAFAKN
TAF
PAKN 212327Z 2200/2224 11008KT P6SM SCT050 BKN070
      TEMPO 2200/2204 11012G20KT
     FM220600 09018G26KT P6SM BKN050 OVC100
     FM220900 08023G32KT P6SM SCT060 BKN100=

USA.gov is the U.S. government's official web portal to all federal, state and local government web resources and services.